sensor_id;sensor_type;location;lat;lon;timestamp;P1;durP1;ratioP1;P2;durP2;ratioP2
6495;SDS011;3281;47.658;9.166;2024-01-15T00:00:16;25.37;;;10.50;;
6495;SDS011;3281;47.658;9.166;2024-01-15T00:02:44;26.13;;;12.13;;
6495;SDS011;3281;47.658;9.166;2024-01-15T00:05:10;27.07;;;11.93;;
6495;SDS011;3281;47.658;9.166;2024-01-15T00:07:38;25.40;;;10.67;;
6495;SDS011;3281;47.658;9.166;2024-01-15T00:10:04;22.07;;;10.43;;
6495;SDS011;3281;47.658;9.166;2024-01-15T00:12:31;22.03;;;10.77;;
6495;SDS011;3281;47.658;9.166;2024-01-15T00:14:58;24.97;;;10.77;;
6495;SDS011;3281;47.658;9.166;2024-01-15T00:17:26;22.90;;;10.87;;
6495;SDS011;3281;47.658;9.166;2024-01-15T00:19:53;23.80;;;10.47;;
6495;SDS011;3281;47.658;9.166;2024-01-15T00:22:20;22.90;;;10.90;;
6495;SDS011;3281;47.658;9.166;2024-01-15T00:24:46;27.40;;;11.80;;
6495;SDS011;3281;47.658;9.166;2024-01-15T00:27:13;31.10;;;11.17;;
6495;SDS011;3281;47.658;9.166;2024-01-15T00:29:40;26.17;;;11.60;;
6495;SDS011;3281;47.658;9.166;2024-01-15T00:32:07;27.13;;;11.37;;
6495;SDS011;3281;47.658;9.166;2024-01-15T00:34:35;26.00;;;11.57;;
6495;SDS011;3281;47.658;9.166;2024-01-15T00:37:02;24.07;;;11.53;;
6495;SDS011;3281;47.658;9.166;2024-01-15T00:39:28;25.07;;;12.13;;
6495;SDS011;3281;47.658;9.166;2024-01-15T00:41:56;25.27;;;11.13;;
6495;SDS011;3281;47.658;9.166;2024-01-15T00:44:22;26.77;;;11.57;;
6495;SDS011;3281;47.658;9.166;2024-01-15T00:46:49;20.90;;;10.80;;
6495;SDS011;3281;47.658;9.166;2024-01-15T00:49:16;22.80;;;10.27;;
6495;SDS011;3281;47.658;9.166;2024-01-15T00:51:44;24.67;;;10.03;;
6495;SDS011;3281;47.658;9.166;2024-01-15T00:54:11;25.43;;;9.93;;
6495;SDS011;3281;47.658;9.166;2024-01-15T00:56:37;21.50;;;9.97;;
6495;SDS011;3281;47.658;9.166;2024-01-15T00:59:04;19.57;;;9.07;;
6495;SDS011;3281;47.658;9.166;2024-01-15T01:01:31;17.43;;;9.20;;
6495;SDS011;3281;47.658;9.166;2024-01-15T01:03:57;16.77;;;8.90;;
6495;SDS011;3281;47.658;9.166;2024-01-15T01:06:25;18.93;;;9.33;;
6495;SDS011;3281;47.658;9.166;2024-01-15T01:08:53;19.17;;;8.93;;
6495;SDS011;3281;47.658;9.166;2024-01-15T01:11:20;20.13;;;8.90;;
6495;SDS011;3281;47.658;9.166;2024-01-15T01:13:47;23.20;;;8.37;;
6495;SDS011;3281;47.658;9.166;2024-01-15T01:16:13;14.47;;;8.20;;
6495;SDS011;3281;47.658;9.166;2024-01-15T01:18:40;14.67;;;7.37;;
6495;SDS011;3281;47.658;9.166;2024-01-15T01:21:07;15.00;;;6.47;;
6495;SDS011;3281;47.658;9.166;2024-01-15T01:23:34;14.30;;;6.80;;
6495;SDS011;3281;47.658;9.166;2024-01-15T01:26:02;14.30;;;6.90;;
6495;SDS011;3281;47.658;9.166;2024-01-15T01:28:28;17.97;;;7.70;;
6495;SDS011;3281;47.658;9.166;2024-01-15T01:30:55;14.67;;;6.77;;
6495;SDS011;3281;47.658;9.166;2024-01-15T01:33:22;13.00;;;6.67;;
6495;SDS011;3281;47.658;9.166;2024-01-15T01:35:48;17.30;;;7.23;;
6495;SDS011;3281;47.658;9.166;2024-01-15T01:38:15;10.83;;;6.27;;
6495;SDS011;3281;47.658;9.166;2024-01-15T01:40:42;11.20;;;6.10;;
6495;SDS011;3281;47.658;9.166;2024-01-15T01:43:10;12.20;;;6.33;;
6495;SDS011;3281;47.658;9.166;2024-01-15T01:45:37;12.03;;;6.57;;
6495;SDS011;3281;47.658;9.166;2024-01-15T01:48:04;11.93;;;6.13;;
6495;SDS011;3281;47.658;9.166;2024-01-15T01:50:32;10.07;;;6.10;;
6495;SDS011;3281;47.658;9.166;2024-01-15T01:52:59;12.37;;;5.77;;
6495;SDS011;3281;47.658;9.166;2024-01-15T01:55:27;12.70;;;5.90;;
6495;SDS011;3281;47.658;9.166;2024-01-15T01:57:58;12.60;;;6.33;;
6495;SDS011;3281;47.658;9.166;2024-01-15T02:00:26;11.43;;;5.20;;
6495;SDS011;3281;47.658;9.166;2024-01-15T02:02:53;13.83;;;6.20;;
6495;SDS011;3281;47.658;9.166;2024-01-15T02:05:20;9.37;;;5.63;;
6495;SDS011;3281;47.658;9.166;2024-01-15T02:07:48;10.13;;;5.83;;
6495;SDS011;3281;47.658;9.166;2024-01-15T02:10:14;10.80;;;5.60;;
6495;SDS011;3281;47.658;9.166;2024-01-15T02:12:42;11.97;;;6.30;;
6495;SDS011;3281;47.658;9.166;2024-01-15T02:15:09;10.27;;;5.70;;
6495;SDS011;3281;47.658;9.166;2024-01-15T02:17:41;10.53;;;5.87;;
6495;SDS011;3281;47.658;9.166;2024-01-15T02:20:22;10.37;;;5.30;;
6495;SDS011;3281;47.658;9.166;2024-01-15T02:22:49;12.00;;;6.13;;
6495;SDS011;3281;47.658;9.166;2024-01-15T02:25:17;12.50;;;5.73;;
6495;SDS011;3281;47.658;9.166;2024-01-15T02:27:44;11.37;;;6.07;;
6495;SDS011;3281;47.658;9.166;2024-01-15T02:30:12;12.10;;;5.83;;
6495;SDS011;3281;47.658;9.166;2024-01-15T02:32:39;11.90;;;5.67;;
6495;SDS011;3281;47.658;9.166;2024-01-15T02:35:06;11.43;;;6.50;;
6495;SDS011;3281;47.658;9.166;2024-01-15T02:37:33;10.33;;;5.43;;
6495;SDS011;3281;47.658;9.166;2024-01-15T02:39:59;11.13;;;5.77;;
6495;SDS011;3281;47.658;9.166;2024-01-15T02:42:27;11.13;;;5.67;;
6495;SDS011;3281;47.658;9.166;2024-01-15T02:44:54;7.87;;;5.03;;
6495;SDS011;3281;47.658;9.166;2024-01-15T02:47:21;14.33;;;6.20;;
6495;SDS011;3281;47.658;9.166;2024-01-15T02:49:47;9.60;;;5.43;;
6495;SDS011;3281;47.658;9.166;2024-01-15T02:52:14;9.27;;;5.47;;
6495;SDS011;3281;47.658;9.166;2024-01-15T02:54:41;13.37;;;5.77;;
6495;SDS011;3281;47.658;9.166;2024-01-15T02:57:08;10.30;;;5.80;;
6495;SDS011;3281;47.658;9.166;2024-01-15T02:59:36;12.73;;;5.93;;
6495;SDS011;3281;47.658;9.166;2024-01-15T03:02:02;10.60;;;5.80;;
6495;SDS011;3281;47.658;9.166;2024-01-15T03:04:29;12.30;;;5.77;;
6495;SDS011;3281;47.658;9.166;2024-01-15T03:06:56;15.13;;;5.83;;
6495;SDS011;3281;47.658;9.166;2024-01-15T03:09:23;13.73;;;5.80;;
6495;SDS011;3281;47.658;9.166;2024-01-15T03:11:49;11.73;;;5.77;;
6495;SDS011;3281;47.658;9.166;2024-01-15T03:14:16;13.50;;;6.77;;
6495;SDS011;3281;47.658;9.166;2024-01-15T03:16:44;13.33;;;6.33;;
6495;SDS011;3281;47.658;9.166;2024-01-15T03:19:11;14.03;;;6.37;;
6495;SDS011;3281;47.658;9.166;2024-01-15T03:21:37;10.70;;;6.27;;
6495;SDS011;3281;47.658;9.166;2024-01-15T03:24:04;13.67;;;6.00;;
6495;SDS011;3281;47.658;9.166;2024-01-15T03:26:31;15.40;;;6.10;;
6495;SDS011;3281;47.658;9.166;2024-01-15T03:28:58;13.17;;;6.40;;
6495;SDS011;3281;47.658;9.166;2024-01-15T03:31:24;16.10;;;7.13;;
6495;SDS011;3281;47.658;9.166;2024-01-15T03:33:52;20.57;;;6.70;;
6495;SDS011;3281;47.658;9.166;2024-01-15T03:36:19;13.87;;;6.83;;
6495;SDS011;3281;47.658;9.166;2024-01-15T03:38:46;12.70;;;6.33;;
6495;SDS011;3281;47.658;9.166;2024-01-15T03:41:12;10.40;;;5.87;;
6495;SDS011;3281;47.658;9.166;2024-01-15T03:43:39;10.50;;;6.27;;
6495;SDS011;3281;47.658;9.166;2024-01-15T03:46:06;14.90;;;6.57;;
6495;SDS011;3281;47.658;9.166;2024-01-15T03:48:33;12.60;;;6.00;;
6495;SDS011;3281;47.658;9.166;2024-01-15T03:51:01;14.67;;;6.50;;
6495;SDS011;3281;47.658;9.166;2024-01-15T03:53:28;12.63;;;6.53;;
6495;SDS011;3281;47.658;9.166;2024-01-15T03:55:56;16.17;;;6.70;;
6495;SDS011;3281;47.658;9.166;2024-01-15T03:58:22;12.83;;;6.90;;
6495;SDS011;3281;47.658;9.166;2024-01-15T04:00:49;13.83;;;6.53;;
6495;SDS011;3281;47.658;9.166;2024-01-15T04:03:16;15.70;;;6.97;;
6495;SDS011;3281;47.658;9.166;2024-01-15T04:05:43;14.40;;;7.60;;
6495;SDS011;3281;47.658;9.166;2024-01-15T04:08:11;14.97;;;7.37;;
6495;SDS011;3281;47.658;9.166;2024-01-15T04:10:38;19.23;;;7.80;;
6495;SDS011;3281;47.658;9.166;2024-01-15T04:13:04;13.57;;;6.80;;
6495;SDS011;3281;47.658;9.166;2024-01-15T04:15:31;18.90;;;8.67;;
6495;SDS011;3281;47.658;9.166;2024-01-15T04:17:58;14.93;;;7.30;;
6495;SDS011;3281;47.658;9.166;2024-01-15T04:20:26;15.10;;;7.00;;
6495;SDS011;3281;47.658;9.166;2024-01-15T04:22:52;15.07;;;7.47;;
6495;SDS011;3281;47.658;9.166;2024-01-15T04:25:21;22.13;;;9.27;;
6495;SDS011;3281;47.658;9.166;2024-01-15T04:27:47;24.57;;;10.93;;
6495;SDS011;3281;47.658;9.166;2024-01-15T04:30:14;24.33;;;10.43;;
6495;SDS011;3281;47.658;9.166;2024-01-15T04:32:41;25.13;;;9.70;;
6495;SDS011;3281;47.658;9.166;2024-01-15T04:35:07;21.10;;;10.20;;
6495;SDS011;3281;47.658;9.166;2024-01-15T04:37:34;21.00;;;9.83;;
6495;SDS011;3281;47.658;9.166;2024-01-15T04:40:01;20.07;;;9.40;;
6495;SDS011;3281;47.658;9.166;2024-01-15T04:42:30;22.90;;;9.33;;
6495;SDS011;3281;47.658;9.166;2024-01-15T04:44:57;21.70;;;9.47;;
6495;SDS011;3281;47.658;9.166;2024-01-15T04:47:23;21.67;;;9.40;;
6495;SDS011;3281;47.658;9.166;2024-01-15T04:49:50;21.43;;;9.43;;
6495;SDS011;3281;47.658;9.166;2024-01-15T04:52:17;17.80;;;8.87;;
6495;SDS011;3281;47.658;9.166;2024-01-15T04:54:43;20.93;;;8.77;;
6495;SDS011;3281;47.658;9.166;2024-01-15T04:57:10;24.57;;;9.67;;
6495;SDS011;3281;47.658;9.166;2024-01-15T04:59:38;19.20;;;8.70;;
6495;SDS011;3281;47.658;9.166;2024-01-15T05:02:05;19.83;;;8.83;;
6495;SDS011;3281;47.658;9.166;2024-01-15T05:04:32;22.00;;;8.77;;
6495;SDS011;3281;47.658;9.166;2024-01-15T05:06:59;18.83;;;8.50;;
6495;SDS011;3281;47.658;9.166;2024-01-15T05:09:25;21.13;;;8.30;;
6495;SDS011;3281;47.658;9.166;2024-01-15T05:11:52;18.83;;;8.17;;
6495;SDS011;3281;47.658;9.166;2024-01-15T05:14:19;19.83;;;8.13;;
6495;SDS011;3281;47.658;9.166;2024-01-15T05:16:47;20.20;;;8.10;;
6495;SDS011;3281;47.658;9.166;2024-01-15T05:19:14;22.77;;;8.77;;
6495;SDS011;3281;47.658;9.166;2024-01-15T05:21:41;19.40;;;8.20;;
6495;SDS011;3281;47.658;9.166;2024-01-15T05:24:08;18.63;;;8.67;;
6495;SDS011;3281;47.658;9.166;2024-01-15T05:26:35;17.27;;;8.03;;
6495;SDS011;3281;47.658;9.166;2024-01-15T05:29:01;15.70;;;7.23;;
6495;SDS011;3281;47.658;9.166;2024-01-15T05:31:28;22.13;;;7.97;;
6495;SDS011;3281;47.658;9.166;2024-01-15T05:33:56;21.03;;;8.57;;
6495;SDS011;3281;47.658;9.166;2024-01-15T05:36:23;26.63;;;8.70;;
6495;SDS011;3281;47.658;9.166;2024-01-15T05:38:50;19.10;;;8.37;;
6495;SDS011;3281;47.658;9.166;2024-01-15T05:41:17;21.57;;;8.40;;
6495;SDS011;3281;47.658;9.166;2024-01-15T05:43:44;19.33;;;8.73;;
6495;SDS011;3281;47.658;9.166;2024-01-15T05:46:10;20.17;;;8.50;;
6495;SDS011;3281;47.658;9.166;2024-01-15T05:48:37;21.80;;;9.43;;
6495;SDS011;3281;47.658;9.166;2024-01-15T05:51:05;16.60;;;7.57;;
6495;SDS011;3281;47.658;9.166;2024-01-15T05:53:32;22.13;;;8.23;;
6495;SDS011;3281;47.658;9.166;2024-01-15T05:55:58;19.77;;;8.53;;
6495;SDS011;3281;47.658;9.166;2024-01-15T05:58:26;20.33;;;8.73;;
6495;SDS011;3281;47.658;9.166;2024-01-15T06:00:52;19.33;;;7.70;;
6495;SDS011;3281;47.658;9.166;2024-01-15T06:03:19;18.50;;;8.87;;
6495;SDS011;3281;47.658;9.166;2024-01-15T06:05:46;19.93;;;9.07;;
6495;SDS011;3281;47.658;9.166;2024-01-15T06:08:14;20.33;;;8.30;;
6495;SDS011;3281;47.658;9.166;2024-01-15T06:10:41;22.53;;;8.63;;
6495;SDS011;3281;47.658;9.166;2024-01-15T06:13:07;20.90;;;8.40;;
6495;SDS011;3281;47.658;9.166;2024-01-15T06:15:34;18.43;;;9.03;;
6495;SDS011;3281;47.658;9.166;2024-01-15T06:18:01;19.70;;;8.23;;
6495;SDS011;3281;47.658;9.166;2024-01-15T06:20:28;18.47;;;8.03;;
6495;SDS011;3281;47.658;9.166;2024-01-15T06:22:55;18.97;;;8.63;;
6495;SDS011;3281;47.658;9.166;2024-01-15T06:25:23;20.17;;;7.77;;
6495;SDS011;3281;47.658;9.166;2024-01-15T06:27:49;21.67;;;8.30;;
6495;SDS011;3281;47.658;9.166;2024-01-15T06:30:16;20.30;;;8.30;;
6495;SDS011;3281;47.658;9.166;2024-01-15T06:32:43;19.33;;;8.20;;
6495;SDS011;3281;47.658;9.166;2024-01-15T06:35:09;22.23;;;8.23;;
6495;SDS011;3281;47.658;9.166;2024-01-15T06:37:36;16.90;;;7.67;;
6495;SDS011;3281;47.658;9.166;2024-01-15T06:40:03;21.50;;;8.67;;
6495;SDS011;3281;47.658;9.166;2024-01-15T06:42:32;19.00;;;7.77;;
6495;SDS011;3281;47.658;9.166;2024-01-15T06:44:59;23.77;;;9.37;;
6495;SDS011;3281;47.658;9.166;2024-01-15T06:47:25;18.97;;;7.90;;
6495;SDS011;3281;47.658;9.166;2024-01-15T06:49:52;19.77;;;8.10;;
6495;SDS011;3281;47.658;9.166;2024-01-15T06:52:20;22.00;;;8.87;;
6495;SDS011;3281;47.658;9.166;2024-01-15T06:54:46;18.97;;;7.93;;
6495;SDS011;3281;47.658;9.166;2024-01-15T06:57:13;26.63;;;8.77;;
6495;SDS011;3281;47.658;9.166;2024-01-15T06:59:41;19.20;;;8.57;;
6495;SDS011;3281;47.658;9.166;2024-01-15T07:02:08;20.37;;;8.33;;
6495;SDS011;3281;47.658;9.166;2024-01-15T07:04:34;17.67;;;8.33;;
6495;SDS011;3281;47.658;9.166;2024-01-15T07:07:01;23.23;;;8.67;;
6495;SDS011;3281;47.658;9.166;2024-01-15T07:09:28;20.53;;;8.47;;
6495;SDS011;3281;47.658;9.166;2024-01-15T07:11:54;20.03;;;8.90;;
6495;SDS011;3281;47.658;9.166;2024-01-15T07:14:23;19.47;;;8.40;;
6495;SDS011;3281;47.658;9.166;2024-01-15T07:16:51;18.87;;;8.80;;
6495;SDS011;3281;47.658;9.166;2024-01-15T07:19:17;21.17;;;8.67;;
6495;SDS011;3281;47.658;9.166;2024-01-15T07:21:44;17.20;;;8.27;;
6495;SDS011;3281;47.658;9.166;2024-01-15T07:24:11;15.73;;;7.73;;
6495;SDS011;3281;47.658;9.166;2024-01-15T07:26:38;18.53;;;8.97;;
6495;SDS011;3281;47.658;9.166;2024-01-15T07:29:05;21.37;;;8.57;;
6495;SDS011;3281;47.658;9.166;2024-01-15T07:31:31;18.40;;;8.30;;
6495;SDS011;3281;47.658;9.166;2024-01-15T07:34:00;20.00;;;8.67;;
6495;SDS011;3281;47.658;9.166;2024-01-15T07:36:26;20.10;;;8.60;;
6495;SDS011;3281;47.658;9.166;2024-01-15T07:38:53;19.77;;;9.20;;
6495;SDS011;3281;47.658;9.166;2024-01-15T07:41:20;15.43;;;7.57;;
6495;SDS011;3281;47.658;9.166;2024-01-15T07:43:46;17.70;;;8.27;;
6495;SDS011;3281;47.658;9.166;2024-01-15T07:46:13;21.83;;;8.07;;
6495;SDS011;3281;47.658;9.166;2024-01-15T07:48:40;20.77;;;8.30;;
6495;SDS011;3281;47.658;9.166;2024-01-15T07:51:08;17.80;;;8.00;;
6495;SDS011;3281;47.658;9.166;2024-01-15T07:53:34;23.37;;;9.03;;
6495;SDS011;3281;47.658;9.166;2024-01-15T07:56:01;27.60;;;9.63;;
6495;SDS011;3281;47.658;9.166;2024-01-15T07:58:28;19.77;;;8.80;;
6495;SDS011;3281;47.658;9.166;2024-01-15T08:00:54;20.87;;;8.87;;
6495;SDS011;3281;47.658;9.166;2024-01-15T08:03:21;23.00;;;9.13;;
6495;SDS011;3281;47.658;9.166;2024-01-15T08:05:48;24.10;;;9.20;;
6495;SDS011;3281;47.658;9.166;2024-01-15T08:08:18;21.13;;;8.73;;
6495;SDS011;3281;47.658;9.166;2024-01-15T08:10:46;19.60;;;9.60;;
6495;SDS011;3281;47.658;9.166;2024-01-15T08:13:13;23.30;;;9.50;;
6495;SDS011;3281;47.658;9.166;2024-01-15T08:15:40;20.23;;;8.97;;
6495;SDS011;3281;47.658;9.166;2024-01-15T08:18:07;24.33;;;9.97;;
6495;SDS011;3281;47.658;9.166;2024-01-15T08:20:34;25.17;;;10.03;;
6495;SDS011;3281;47.658;9.166;2024-01-15T08:23:00;24.57;;;10.43;;
6495;SDS011;3281;47.658;9.166;2024-01-15T08:25:28;22.23;;;9.17;;
6495;SDS011;3281;47.658;9.166;2024-01-15T08:27:55;23.97;;;9.60;;
6495;SDS011;3281;47.658;9.166;2024-01-15T08:30:22;22.77;;;10.10;;
6495;SDS011;3281;47.658;9.166;2024-01-15T08:32:52;24.07;;;10.07;;
6495;SDS011;3281;47.658;9.166;2024-01-15T08:35:19;26.10;;;10.30;;
6495;SDS011;3281;47.658;9.166;2024-01-15T08:37:47;23.17;;;9.50;;
6495;SDS011;3281;47.658;9.166;2024-01-15T08:40:14;24.43;;;8.80;;
6495;SDS011;3281;47.658;9.166;2024-01-15T08:42:43;23.87;;;9.10;;
6495;SDS011;3281;47.658;9.166;2024-01-15T08:45:10;21.83;;;9.80;;
6495;SDS011;3281;47.658;9.166;2024-01-15T08:47:37;20.73;;;9.27;;
6495;SDS011;3281;47.658;9.166;2024-01-15T08:50:04;17.90;;;8.93;;
6495;SDS011;3281;47.658;9.166;2024-01-15T08:52:34;24.77;;;9.63;;
6495;SDS011;3281;47.658;9.166;2024-01-15T08:55:02;19.20;;;9.00;;
6495;SDS011;3281;47.658;9.166;2024-01-15T08:57:29;21.57;;;8.97;;
6495;SDS011;3281;47.658;9.166;2024-01-15T08:59:57;26.07;;;10.87;;
6495;SDS011;3281;47.658;9.166;2024-01-15T09:02:25;23.53;;;10.23;;
6495;SDS011;3281;47.658;9.166;2024-01-15T09:04:51;19.37;;;9.97;;
6495;SDS011;3281;47.658;9.166;2024-01-15T09:07:18;24.53;;;10.90;;
6495;SDS011;3281;47.658;9.166;2024-01-15T09:09:45;26.10;;;9.90;;
6495;SDS011;3281;47.658;9.166;2024-01-15T09:12:11;21.90;;;10.03;;
6495;SDS011;3281;47.658;9.166;2024-01-15T09:14:40;22.10;;;8.90;;
6495;SDS011;3281;47.658;9.166;2024-01-15T09:17:08;21.30;;;9.43;;
6495;SDS011;3281;47.658;9.166;2024-01-15T09:19:35;20.53;;;9.60;;
6495;SDS011;3281;47.658;9.166;2024-01-15T09:22:02;22.00;;;9.13;;
6495;SDS011;3281;47.658;9.166;2024-01-15T09:24:28;22.63;;;9.90;;
6495;SDS011;3281;47.658;9.166;2024-01-15T09:26:55;21.57;;;9.70;;
6495;SDS011;3281;47.658;9.166;2024-01-15T09:29:22;21.50;;;9.20;;
6495;SDS011;3281;47.658;9.166;2024-01-15T09:31:48;21.53;;;9.77;;
6495;SDS011;3281;47.658;9.166;2024-01-15T09:34:17;18.80;;;8.20;;
6495;SDS011;3281;47.658;9.166;2024-01-15T09:36:44;19.33;;;9.00;;
6495;SDS011;3281;47.658;9.166;2024-01-15T09:39:11;23.00;;;9.43;;
6495;SDS011;3281;47.658;9.166;2024-01-15T09:41:37;19.77;;;9.00;;
6495;SDS011;3281;47.658;9.166;2024-01-15T09:44:04;25.10;;;9.63;;
6495;SDS011;3281;47.658;9.166;2024-01-15T09:46:34;20.47;;;9.43;;
6495;SDS011;3281;47.658;9.166;2024-01-15T09:49:01;17.90;;;8.40;;
6495;SDS011;3281;47.658;9.166;2024-01-15T09:51:31;22.70;;;9.17;;
6495;SDS011;3281;47.658;9.166;2024-01-15T09:53:58;21.47;;;8.60;;
6495;SDS011;3281;47.658;9.166;2024-01-15T09:56:25;20.57;;;8.50;;
6495;SDS011;3281;47.658;9.166;2024-01-15T09:58:52;21.17;;;8.53;;
6495;SDS011;3281;47.658;9.166;2024-01-15T10:01:20;20.73;;;9.23;;
6495;SDS011;3281;47.658;9.166;2024-01-15T10:03:46;21.80;;;8.30;;
6495;SDS011;3281;47.658;9.166;2024-01-15T10:06:13;18.97;;;7.70;;
6495;SDS011;3281;47.658;9.166;2024-01-15T10:08:44;21.37;;;8.57;;
6495;SDS011;3281;47.658;9.166;2024-01-15T10:11:14;21.07;;;8.20;;
6495;SDS011;3281;47.658;9.166;2024-01-15T10:13:41;21.37;;;8.97;;
6495;SDS011;3281;47.658;9.166;2024-01-15T10:16:10;17.17;;;7.67;;
6495;SDS011;3281;47.658;9.166;2024-01-15T10:18:37;21.37;;;8.77;;
6495;SDS011;3281;47.658;9.166;2024-01-15T10:21:05;20.17;;;8.60;;
6495;SDS011;3281;47.658;9.166;2024-01-15T10:23:33;18.67;;;7.33;;
6495;SDS011;3281;47.658;9.166;2024-01-15T10:26:02;16.80;;;7.70;;
6495;SDS011;3281;47.658;9.166;2024-01-15T10:28:29;16.97;;;8.10;;
6495;SDS011;3281;47.658;9.166;2024-01-15T10:30:56;15.63;;;7.70;;
6495;SDS011;3281;47.658;9.166;2024-01-15T10:33:24;21.70;;;8.20;;
6495;SDS011;3281;47.658;9.166;2024-01-15T10:35:53;19.87;;;7.83;;
6495;SDS011;3281;47.658;9.166;2024-01-15T10:38:20;14.20;;;7.27;;
6495;SDS011;3281;47.658;9.166;2024-01-15T10:40:47;15.27;;;7.20;;
6495;SDS011;3281;47.658;9.166;2024-01-15T10:43:18;24.23;;;7.77;;
6495;SDS011;3281;47.658;9.166;2024-01-15T10:45:45;21.53;;;7.83;;
6495;SDS011;3281;47.658;9.166;2024-01-15T10:48:12;16.77;;;7.13;;
6495;SDS011;3281;47.658;9.166;2024-01-15T10:50:39;18.07;;;7.10;;
6495;SDS011;3281;47.658;9.166;2024-01-15T10:53:06;14.27;;;7.03;;
6495;SDS011;3281;47.658;9.166;2024-01-15T10:55:35;22.83;;;7.73;;
6495;SDS011;3281;47.658;9.166;2024-01-15T10:58:04;19.20;;;7.57;;
6495;SDS011;3281;47.658;9.166;2024-01-15T11:00:33;20.53;;;6.60;;
6495;SDS011;3281;47.658;9.166;2024-01-15T11:03:02;16.27;;;6.97;;
6495;SDS011;3281;47.658;9.166;2024-01-15T11:05:32;20.07;;;8.13;;
6495;SDS011;3281;47.658;9.166;2024-01-15T11:07:59;16.53;;;6.97;;
6495;SDS011;3281;47.658;9.166;2024-01-15T11:10:40;15.17;;;6.63;;
6495;SDS011;3281;47.658;9.166;2024-01-15T11:13:08;14.90;;;7.73;;
6495;SDS011;3281;47.658;9.166;2024-01-15T11:18:22;18.03;;;7.13;;
6495;SDS011;3281;47.658;9.166;2024-01-15T11:23:47;14.53;;;6.57;;
6495;SDS011;3281;47.658;9.166;2024-01-15T11:26:26;17.47;;;6.93;;
6495;SDS011;3281;47.658;9.166;2024-01-15T11:28:54;14.93;;;6.30;;
6495;SDS011;3281;47.658;9.166;2024-01-15T11:31:26;13.33;;;6.43;;
6495;SDS011;3281;47.658;9.166;2024-01-15T11:33:54;16.53;;;7.60;;
6495;SDS011;3281;47.658;9.166;2024-01-15T11:36:21;12.83;;;6.60;;
6495;SDS011;3281;47.658;9.166;2024-01-15T11:38:47;12.53;;;6.43;;
6495;SDS011;3281;47.658;9.166;2024-01-15T11:41:14;16.37;;;6.40;;
6495;SDS011;3281;47.658;9.166;2024-01-15T11:43:41;11.53;;;5.83;;
6495;SDS011;3281;47.658;9.166;2024-01-15T11:46:10;13.70;;;5.57;;
6495;SDS011;3281;47.658;9.166;2024-01-15T11:48:43;12.17;;;5.93;;
6495;SDS011;3281;47.658;9.166;2024-01-15T11:51:11;13.30;;;5.43;;
6495;SDS011;3281;47.658;9.166;2024-01-15T11:53:40;13.63;;;6.10;;
6495;SDS011;3281;47.658;9.166;2024-01-15T11:56:14;11.43;;;5.67;;
6495;SDS011;3281;47.658;9.166;2024-01-15T11:58:41;16.60;;;6.30;;
6495;SDS011;3281;47.658;9.166;2024-01-15T12:01:09;13.07;;;6.00;;
6495;SDS011;3281;47.658;9.166;2024-01-15T12:03:39;14.20;;;6.03;;
6495;SDS011;3281;47.658;9.166;2024-01-15T12:06:08;12.47;;;5.63;;
6495;SDS011;3281;47.658;9.166;2024-01-15T12:08:36;12.17;;;5.43;;
6495;SDS011;3281;47.658;9.166;2024-01-15T12:11:04;20.07;;;7.23;;
6495;SDS011;3281;47.658;9.166;2024-01-15T12:13:36;11.80;;;5.60;;
6495;SDS011;3281;47.658;9.166;2024-01-15T12:16:03;16.50;;;5.30;;
6495;SDS011;3281;47.658;9.166;2024-01-15T12:18:30;15.30;;;5.93;;
6495;SDS011;3281;47.658;9.166;2024-01-15T12:20:57;12.30;;;5.80;;
6495;SDS011;3281;47.658;9.166;2024-01-15T12:23:25;11.77;;;5.87;;
6495;SDS011;3281;47.658;9.166;2024-01-15T12:25:52;11.17;;;5.27;;
6495;SDS011;3281;47.658;9.166;2024-01-15T12:28:19;11.43;;;6.00;;
6495;SDS011;3281;47.658;9.166;2024-01-15T12:30:46;15.43;;;5.70;;
6495;SDS011;3281;47.658;9.166;2024-01-15T12:33:15;12.00;;;5.30;;
6495;SDS011;3281;47.658;9.166;2024-01-15T12:35:44;16.00;;;5.10;;
6495;SDS011;3281;47.658;9.166;2024-01-15T12:38:11;8.10;;;4.27;;
6495;SDS011;3281;47.658;9.166;2024-01-15T12:40:39;7.03;;;4.13;;
6495;SDS011;3281;47.658;9.166;2024-01-15T12:43:06;9.93;;;4.57;;
6495;SDS011;3281;47.658;9.166;2024-01-15T12:45:32;8.07;;;4.13;;
6495;SDS011;3281;47.658;9.166;2024-01-15T12:48:00;7.77;;;4.00;;
6495;SDS011;3281;47.658;9.166;2024-01-15T12:50:28;11.13;;;4.60;;
6495;SDS011;3281;47.658;9.166;2024-01-15T12:52:55;13.10;;;3.77;;
6495;SDS011;3281;47.658;9.166;2024-01-15T12:55:21;8.20;;;4.00;;
6495;SDS011;3281;47.658;9.166;2024-01-15T12:57:51;9.77;;;4.13;;
6495;SDS011;3281;47.658;9.166;2024-01-15T13:00:19;8.33;;;4.27;;
6495;SDS011;3281;47.658;9.166;2024-01-15T13:02:46;17.90;;;4.23;;
6495;SDS011;3281;47.658;9.166;2024-01-15T13:05:14;8.50;;;4.07;;
6495;SDS011;3281;47.658;9.166;2024-01-15T13:07:42;10.23;;;4.60;;
6495;SDS011;3281;47.658;9.166;2024-01-15T13:10:09;6.63;;;4.07;;
6495;SDS011;3281;47.658;9.166;2024-01-15T13:12:36;10.57;;;4.20;;
6495;SDS011;3281;47.658;9.166;2024-01-15T13:15:05;9.37;;;4.87;;
6495;SDS011;3281;47.658;9.166;2024-01-15T13:17:36;7.47;;;3.70;;
6495;SDS011;3281;47.658;9.166;2024-01-15T13:20:03;6.70;;;3.93;;
6495;SDS011;3281;47.658;9.166;2024-01-15T13:22:31;10.33;;;4.20;;
6495;SDS011;3281;47.658;9.166;2024-01-15T13:24:57;7.93;;;4.37;;
6495;SDS011;3281;47.658;9.166;2024-01-15T13:27:24;6.83;;;4.03;;
6495;SDS011;3281;47.658;9.166;2024-01-15T13:29:51;10.43;;;4.43;;
6495;SDS011;3281;47.658;9.166;2024-01-15T13:32:24;7.23;;;4.23;;
6495;SDS011;3281;47.658;9.166;2024-01-15T13:34:52;10.30;;;3.80;;
6495;SDS011;3281;47.658;9.166;2024-01-15T13:37:18;12.67;;;4.20;;
6495;SDS011;3281;47.658;9.166;2024-01-15T13:39:45;9.30;;;4.00;;
6495;SDS011;3281;47.658;9.166;2024-01-15T13:42:12;8.30;;;3.97;;
6495;SDS011;3281;47.658;9.166;2024-01-15T13:44:39;8.33;;;4.43;;
6495;SDS011;3281;47.658;9.166;2024-01-15T13:47:06;6.73;;;3.77;;
6495;SDS011;3281;47.658;9.166;2024-01-15T13:49:35;7.40;;;4.27;;
6495;SDS011;3281;47.658;9.166;2024-01-15T13:52:02;7.73;;;4.07;;
6495;SDS011;3281;47.658;9.166;2024-01-15T13:54:29;13.10;;;3.83;;
6495;SDS011;3281;47.658;9.166;2024-01-15T13:56:56;7.67;;;3.60;;
6495;SDS011;3281;47.658;9.166;2024-01-15T13:59:24;9.33;;;4.33;;
6495;SDS011;3281;47.658;9.166;2024-01-15T14:01:51;8.20;;;4.43;;
6495;SDS011;3281;47.658;9.166;2024-01-15T14:04:17;7.70;;;4.20;;
6495;SDS011;3281;47.658;9.166;2024-01-15T14:06:46;7.77;;;3.93;;
6495;SDS011;3281;47.658;9.166;2024-01-15T14:09:12;9.20;;;4.23;;
6495;SDS011;3281;47.658;9.166;2024-01-15T14:11:39;6.27;;;4.23;;
6495;SDS011;3281;47.658;9.166;2024-01-15T14:14:06;8.83;;;4.27;;
6495;SDS011;3281;47.658;9.166;2024-01-15T14:16:34;12.10;;;4.40;;
6495;SDS011;3281;47.658;9.166;2024-01-15T14:19:01;11.90;;;4.47;;
6495;SDS011;3281;47.658;9.166;2024-01-15T14:21:28;9.00;;;4.43;;
6495;SDS011;3281;47.658;9.166;2024-01-15T14:23:56;11.90;;;4.77;;
6495;SDS011;3281;47.658;9.166;2024-01-15T14:26:23;8.83;;;4.77;;
6495;SDS011;3281;47.658;9.166;2024-01-15T14:28:49;7.00;;;4.47;;
6495;SDS011;3281;47.658;9.166;2024-01-15T14:31:17;8.87;;;4.93;;
6495;SDS011;3281;47.658;9.166;2024-01-15T14:33:45;9.40;;;5.00;;
6495;SDS011;3281;47.658;9.166;2024-01-15T14:36:12;12.63;;;5.37;;
6495;SDS011;3281;47.658;9.166;2024-01-15T14:38:38;11.03;;;5.73;;
6495;SDS011;3281;47.658;9.166;2024-01-15T14:41:06;12.67;;;6.00;;
6495;SDS011;3281;47.658;9.166;2024-01-15T14:43:33;15.10;;;6.67;;
6495;SDS011;3281;47.658;9.166;2024-01-15T14:46:00;14.13;;;7.23;;
6495;SDS011;3281;47.658;9.166;2024-01-15T14:48:26;19.13;;;8.47;;
6495;SDS011;3281;47.658;9.166;2024-01-15T14:50:54;19.23;;;8.27;;
6495;SDS011;3281;47.658;9.166;2024-01-15T14:53:21;18.70;;;9.30;;
6495;SDS011;3281;47.658;9.166;2024-01-15T14:55:47;22.47;;;9.67;;
6495;SDS011;3281;47.658;9.166;2024-01-15T14:58:15;21.07;;;9.53;;
6495;SDS011;3281;47.658;9.166;2024-01-15T15:00:42;22.20;;;11.27;;
6495;SDS011;3281;47.658;9.166;2024-01-15T15:03:11;23.13;;;11.23;;
6495;SDS011;3281;47.658;9.166;2024-01-15T15:05:39;25.57;;;10.33;;